Time;durP1;ratioP1;P1;durP2;ratioP2;P2;SDS_P1;SDS_P2;PMS_P1;PMS_P2;Temp;Humidity;BMP_temperature;BMP_pressure;BME280_temperature;BME280_humidity;BME280_pressure;Samples;Min_cycle;Max_cycle;Signal;HPM_P1;HPM_P2
2021/08/23 00:04:26;;;;;;;9.58;8.28;;;;;;;25.07;100.00;99049.54;4588085;77;28469;-79
2021/08/23 00:10:27;;;;;;;13.13;9.00;;;;;;;25.17;100.00;99040.14;4566734;77;28485;-79
2021/08/23 00:16:29;;;;;;;10.20;7.80;;;;;;;24.63;100.00;99045.50;4592282;76;28487;-78
2021/08/23 00:22:32;;;;;;;11.08;8.40;;;;;;;24.63;100.00;99033.92;4424064;79;28474;-78
2021/08/23 00:28:33;;;;;;;12.90;8.48;;;;;;;24.59;100.00;99021.16;4568620;77;28466;-78
2021/08/23 00:34:35;;;;;;;12.18;8.83;;;;;;;24.71;100.00;99021.88;4598520;77;28496;-78
2021/08/23 00:40:37;;;;;;;12.47;8.50;;;;;;;24.66;100.00;99020.11;4573267;76;28499;-78
2021/08/23 00:46:38;;;;;;;12.43;8.58;;;;;;;24.64;100.00;99013.55;4565000;76;28506;-79
2021/08/23 00:52:41;;;;;;;12.28;8.25;;;;;;;24.77;100.00;99026.05;4598245;77;28485;-79
2021/08/23 00:58:42;;;;;;;10.43;7.70;;;;;;;24.48;100.00;99026.99;4599120;77;28567;-79
2021/08/23 01:05:02;;;;;;;10.75;7.67;;;;;;;24.50;100.00;99024.72;4509979;77;28455;-79
2021/08/23 01:11:07;;;;;;;9.23;7.65;;;;;;;24.49;100.00;99027.23;4467620;79;28510;-79
2021/08/23 01:17:08;;;;;;;11.65;7.85;;;;;;;24.76;100.00;99025.26;4464602;79;28574;-79
2021/08/23 01:23:13;;;;;;;11.33;7.97;;;;;;;24.88;100.00;99021.84;4580566;77;28500;-78
2021/08/23 01:29:28;;;;;;;11.90;7.08;;;;;;;24.76;100.00;99021.14;4591775;77;28956;-78
2021/08/23 01:35:30;;;;;;;11.12;7.45;;;;;;;24.30;100.00;99028.13;4562821;76;28526;-78
2021/08/23 01:41:31;;;;;;;10.32;8.73;;;;;;;24.37;100.00;99036.70;4558920;77;28959;-79
2021/08/23 01:47:32;;;;;;;11.53;8.93;;;;;;;24.28;100.00;99027.65;4384166;81;28475;-78
2021/08/23 01:53:34;;;;;;;13.10;8.68;;;;;;;24.32;100.00;99014.31;4416239;80;28461;-78
2021/08/23 01:59:35;;;;;;;13.10;9.40;;;;;;;24.32;100.00;99003.33;4412358;79;28575;-77
2021/08/23 02:05:36;;;;;;;11.22;8.93;;;;;;;24.45;100.00;98999.35;4411708;79;28558;-77
2021/08/23 02:11:37;;;;;;;12.63;9.60;;;;;;;23.36;100.00;98996.55;4419311;79;28513;-78
2021/08/23 02:17:39;;;;;;;15.00;9.60;;;;;;;23.65;100.00;98980.67;4461085;79;28440;-78
2021/08/23 02:23:41;;;;;;;12.45;10.08;;;;;;;23.59;100.00;98973.16;4490419;79;28475;-79
2021/08/23 02:29:43;;;;;;;13.15;9.08;;;;;;;23.52;100.00;98965.95;4451747;79;28474;-78
2021/08/23 02:35:44;;;;;;;9.05;7.28;;;;;;;23.49;100.00;98954.25;4465389;79;28506;-78
2021/08/23 02:41:49;;;;;;;10.30;8.43;;;;;;;23.81;100.00;98961.80;4465010;80;28515;-79
2021/08/23 02:47:49;;;;;;;13.40;8.50;;;;;;;24.44;100.00;98960.09;4465563;79;28448;-78
2021/08/23 02:53:50;;;;;;;9.95;8.60;;;;;;;24.42;100.00;98953.30;4466192;78;28448;-79
2021/08/23 02:59:51;;;;;;;11.25;8.55;;;;;;;24.34;100.00;98948.86;4420279;80;28517;-78
2021/08/23 03:05:53;;;;;;;9.13;7.72;;;;;;;24.47;100.00;98945.70;4419835;80;28464;-78
2021/08/23 03:11:54;;;;;;;10.35;7.60;;;;;;;24.41;100.00;98949.73;4419995;80;28498;-79
2021/08/23 03:17:55;;;;;;;10.15;7.60;;;;;;;24.51;100.00;98949.39;4420116;79;28452;-79
2021/08/23 03:23:56;;;;;;;11.03;8.40;;;;;;;24.50;100.00;98940.13;4557808;77;28566;-79
2021/08/23 03:29:57;;;;;;;10.98;8.53;;;;;;;24.86;100.00;98944.97;4354830;79;28452;-79
2021/08/23 03:36:00;;;;;;;11.63;8.03;;;;;;;24.23;100.00;98939.34;4332266;82;28593;-79
2021/08/23 03:42:02;;;;;;;10.55;8.30;;;;;;;24.42;100.00;98938.19;4357755;80;28536;-79
2021/08/23 03:48:04;;;;;;;11.33;8.28;;;;;;;24.31;100.00;98940.46;4418618;80;28534;-79
2021/08/23 03:54:05;;;;;;;11.83;8.85;;;;;;;24.07;100.00;98943.98;4571638;76;28506;-79
2021/08/23 04:00:09;;;;;;;10.68;8.45;;;;;;;23.37;100.00;98945.27;4568595;77;28550;-80
2021/08/23 04:06:14;;;;;;;10.48;8.28;;;;;;;23.11;100.00;98956.91;4591617;77;28459;-79
2021/08/23 04:12:16;;;;;;;11.55;9.15;;;;;;;23.02;100.00;98952.78;4591607;77;28471;-78
2021/08/23 04:18:17;;;;;;;12.55;8.78;;;;;;;23.79;100.00;98955.25;4590674;77;28520;-78
2021/08/23 04:24:18;;;;;;;12.20;8.90;;;;;;;24.24;100.00;98953.33;4590566;77;28511;-78
2021/08/23 04:30:20;;;;;;;10.43;8.53;;;;;;;24.19;100.00;98958.41;4590253;77;28503;-79
2021/08/23 04:36:22;;;;;;;11.05;9.13;;;;;;;24.43;100.00;98974.97;4563654;78;28481;-79
2021/08/23 04:42:23;;;;;;;12.28;8.75;;;;;;;24.75;100.00;98988.47;4565940;78;28433;-79
2021/08/23 04:48:24;;;;;;;10.38;7.92;;;;;;;24.02;100.00;98979.80;4589369;77;28465;-79
2021/08/23 04:54:25;;;;;;;14.33;9.10;;;;;;;23.89;100.00;98980.19;4563963;77;28499;-77
2021/08/23 05:00:27;;;;;;;13.65;9.23;;;;;;;23.69;100.00;99010.45;4542884;77;28534;-79
2021/08/23 05:06:29;;;;;;;11.80;8.80;;;;;;;23.55;100.00;99034.48;4548598;78;28527;-78
2021/08/23 05:12:32;;;;;;;12.73;7.70;;;;;;;23.49;100.00;99031.07;4577524;76;28573;-79
2021/08/23 05:18:34;;;;;;;10.23;7.70;;;;;;;23.44;100.00;99032.02;4581843;76;28491;-79
2021/08/23 05:24:35;;;;;;;9.25;6.90;;;;;;;23.48;100.00;99043.97;4546634;77;28522;-79
2021/08/23 05:30:36;;;;;;;9.98;6.37;;;;;;;23.60;100.00;99046.66;4570457;77;28548;-79
2021/08/23 05:36:37;;;;;;;9.40;6.15;;;;;;;23.87;100.00;99055.20;4524923;77;28449;-80
2021/08/23 05:42:39;;;;;;;7.37;5.30;;;;;;;23.70;100.00;99060.09;4508376;79;28536;-81
2021/08/23 05:48:40;;;;;;;6.50;4.90;;;;;;;23.51;100.00;99058.99;4553156;77;28625;-80
2021/08/23 05:54:43;;;;;;;6.37;4.95;;;;;;;23.76;100.00;99062.94;4566871;77;28472;-80
2021/08/23 06:00:44;;;;;;;8.80;5.87;;;;;;;23.66;100.00;99059.12;4528537;77;28480;-80
2021/08/23 06:06:46;;;;;;;8.53;5.35;;;;;;;24.19;100.00;99068.28;4566916;77;28508;-80
2021/08/23 06:12:48;;;;;;;6.37;4.67;;;;;;;24.06;100.00;99074.73;4585651;77;28512;-82
2021/08/23 06:18:49;;;;;;;6.00;4.20;;;;;;;24.19;100.00;99074.35;4541179;77;28466;-81
2021/08/23 06:24:52;;;;;;;5.50;4.20;;;;;;;24.13;100.00;99083.31;4568962;77;28492;-81
2021/08/23 06:30:53;;;;;;;5.35;3.90;;;;;;;24.28;100.00;99091.66;4580304;76;28489;-81
2021/08/23 06:36:54;;;;;;;4.42;3.50;;;;;;;24.19;100.00;99083.38;4563990;77;28468;-80
2021/08/23 06:42:55;;;;;;;4.17;2.87;;;;;;;24.40;100.00;99086.87;4543248;76;28478;-80
2021/08/23 06:48:57;;;;;;;5.20;2.72;;;;;;;23.92;100.00;99087.19;4565083;76;28429;-78
2021/08/23 06:54:58;;;;;;;3.50;2.40;;;;;;;24.11;100.00;99084.20;4534074;76;28480;-79
2021/08/23 07:01:15;;;;;;;4.17;2.40;;;;;;;23.74;100.00;99085.79;4546246;76;28461;-78
2021/08/23 07:07:29;;;;;;;7.40;2.70;;;;;;;23.43;100.00;99088.02;4542176;76;28464;-79
2021/08/23 07:13:30;;;;;;;5.03;2.60;;;;;;;23.32;100.00;99073.75;4521307;76;28468;-79
2021/08/23 07:19:34;;;;;;;4.17;2.33;;;;;;;23.42;100.00;99078.72;4530214;77;28504;-79
2021/08/23 07:25:38;;;;;;;3.85;2.30;;;;;;;23.61;100.00;99077.91;4452332;77;28491;-79
2021/08/23 07:31:41;;;;;;;4.60;2.40;;;;;;;23.80;100.00;99074.09;4455166;78;28452;-78
2021/08/23 07:37:47;;;;;;;3.95;2.62;;;;;;;23.91;100.00;99074.59;4433119;78;28492;-79
2021/08/23 07:43:49;;;;;;;3.83;2.62;;;;;;;24.53;100.00;99081.56;4439621;78;28470;-78
2021/08/23 07:49:50;;;;;;;2.45;1.98;;;;;;;24.69;100.00;99079.13;4446897;79;28464;-78
2021/08/23 07:55:52;;;;;;;2.90;2.10;;;;;;;24.31;100.00;99077.27;4442201;77;28507;-77
2021/08/23 08:01:54;;;;;;;3.60;2.05;;;;;;;23.92;100.00;99077.03;4434948;77;28498;-77
2021/08/23 08:07:55;;;;;;;3.05;2.17;;;;;;;23.93;100.00;99076.45;4445109;77;28486;-80
2021/08/23 08:13:57;;;;;;;2.70;2.05;;;;;;;23.87;100.00;99081.28;4444106;78;28452;-79
2021/08/23 08:19:58;;;;;;;3.30;2.27;;;;;;;24.09;100.00;99080.95;4455337;77;28520;-81
2021/08/23 08:25:59;;;;;;;3.62;2.05;;;;;;;24.88;100.00;99086.45;4537327;77;28512;-80
2021/08/23 08:32:01;;;;;;;5.00;2.87;;;;;;;24.98;100.00;99083.95;4554582;76;28469;-79
2021/08/23 08:38:03;;;;;;;3.20;2.15;;;;;;;24.72;100.00;99086.13;4519890;76;28446;-79
2021/08/23 08:44:06;;;;;;;2.77;2.00;;;;;;;24.82;100.00;99090.53;4543088;76;28471;-80
2021/08/23 08:50:14;;;;;;;3.65;2.40;;;;;;;24.96;100.00;99093.66;4466407;78;28468;-79
2021/08/23 08:56:15;;;;;;;3.05;2.17;;;;;;;24.72;100.00;99099.88;4477546;78;28498;-79
2021/08/23 09:02:17;;;;;;;3.60;2.30;;;;;;;25.07;100.00;99094.92;4387244;80;28502;-82
2021/08/23 09:08:28;;;;;;;3.55;2.30;;;;;;;25.25;100.00;99099.80;4368598;79;28562;-84
2021/08/23 09:14:29;;;;;;;3.40;2.40;;;;;;;25.35;100.00;99104.16;4513123;77;28494;-83
2021/08/23 09:20:32;;;;;;;4.50;2.58;;;;;;;25.58;100.00;99105.31;4543517;77;28504;-85
2021/08/23 09:26:35;;;;;;;4.10;2.67;;;;;;;25.56;100.00;99098.75;4579545;77;28527;-85
2021/08/23 09:32:49;;;;;;;3.70;2.70;;;;;;;25.63;100.00;99105.14;4529637;76;28487;-84
2021/08/23 09:39:07;;;;;;;4.75;2.80;;;;;;;25.00;100.00;99102.30;4558020;77;28533;-86
2021/08/23 09:45:19;;;;;;;3.62;2.58;;;;;;;25.07;100.00;99096.30;4538380;77;28491;-85
2021/08/23 09:51:27;;;;;;;4.45;2.58;;;;;;;26.13;96.56;99098.05;4552649;76;28468;-84
2021/08/23 09:57:30;;;;;;;3.30;2.50;;;;;;;25.24;100.00;99094.06;4546404;76;28513;-83
2021/08/23 10:03:36;;;;;;;4.33;2.83;;;;;;;25.68;100.00;99092.55;4548992;76;28503;-84
2021/08/23 10:09:41;;;;;;;3.12;2.60;;;;;;;25.50;100.00;99098.71;4542254;76;28524;-83
2021/08/23 10:15:43;;;;;;;3.92;2.58;;;;;;;26.11;100.00;99095.38;4563939;76;28461;-83
2021/08/23 10:21:48;;;;;;;5.40;2.92;;;;;;;26.53;93.63;99087.73;4558199;77;28477;-84
2021/08/23 10:28:06;;;;;;;3.75;2.55;;;;;;;27.06;87.41;99088.64;4538487;76;28513;-84
2021/08/23 10:34:18;;;;;;;5.05;3.58;;;;;;;26.40;90.34;99101.46;4557780;76;28508;-84
2021/08/23 10:40:36;;;;;;;4.00;3.12;;;;;;;26.12;94.72;99106.08;4459164;78;28519;-85
2021/08/23 10:46:40;;;;;;;4.20;3.00;;;;;;;25.30;100.00;99099.64;4490406;78;28518;-84
2021/08/23 10:52:43;;;;;;;4.58;3.10;;;;;;;25.27;100.00;99103.61;4381616;79;28529;-84
2021/08/23 10:58:46;;;;;;;5.53;3.30;;;;;;;25.19;100.00;99103.30;4469357;78;28477;-86
2021/08/23 11:05:19;;;;;;;4.47;3.12;;;;;;;25.09;100.00;99105.02;4552774;76;28494;-81
2021/08/23 11:11:20;;;;;;;6.62;3.17;;;;;;;25.12;100.00;99096.69;4558240;76;28531;-82
2021/08/23 11:17:33;;;;;;;4.22;2.98;;;;;;;25.29;100.00;99087.58;4551709;76;28484;-80
2021/08/23 11:23:35;;;;;;;4.10;2.95;;;;;;;24.86;100.00;99071.45;4544196;76;28479;-81
2021/08/23 11:29:42;;;;;;;6.00;3.10;;;;;;;25.09;100.00;99075.35;4559947;76;28492;-80
2021/08/23 11:35:46;;;;;;;4.37;2.95;;;;;;;25.60;96.62;99069.44;4570441;76;28513;-85
2021/08/23 11:41:59;;;;;;;3.95;3.22;;;;;;;25.41;97.46;99074.52;4565652;76;28490;-78
2021/08/23 11:48:01;;;;;;;4.47;3.30;;;;;;;25.34;98.66;99079.16;4566527;76;28463;-81
2021/08/23 11:54:05;;;;;;;3.52;3.00;;;;;;;25.26;100.00;99078.06;4576260;76;28526;-81
2021/08/23 12:00:07;;;;;;;3.65;2.83;;;;;;;25.55;97.41;99075.70;4563223;77;28580;-81
2021/08/23 12:06:12;;;;;;;6.00;3.25;;;;;;;25.23;96.47;99071.02;4558454;77;28425;-81
2021/08/23 12:12:24;;;;;;;4.35;3.02;;;;;;;25.06;97.97;99067.18;4564829;77;28529;-81
2021/08/23 12:18:33;;;;;;;3.25;2.55;;;;;;;25.26;95.87;99070.36;4555279;77;28471;-82
2021/08/23 12:24:34;;;;;;;4.08;2.92;;;;;;;25.53;95.20;99077.98;4502269;77;28537;-83
2021/08/23 12:30:35;;;;;;;3.80;2.60;;;;;;;25.72;91.70;99075.62;4422426;78;28493;-83
2021/08/23 12:36:37;;;;;;;3.20;2.47;;;;;;;25.88;90.42;99074.48;4455324;78;28517;-82
2021/08/23 12:42:38;;;;;;;3.27;2.55;;;;;;;26.45;82.47;99061.87;4462079;78;28528;-82
2021/08/23 12:48:39;;;;;;;3.83;2.70;;;;;;;26.42;81.57;99045.42;4449626;78;28930;-82
2021/08/23 12:54:41;;;;;;;3.65;2.52;;;;;;;26.40;80.64;99046.34;4436250;79;28514;-82
2021/08/23 13:00:42;;;;;;;4.15;2.67;;;;;;;27.05;77.49;99038.16;4437494;78;28482;-82
2021/08/23 13:06:44;;;;;;;3.55;2.50;;;;;;;26.81;78.09;99038.31;4440832;78;28599;-81
2021/08/23 13:12:48;;;;;;;4.42;2.65;;;;;;;27.03;75.40;99038.30;4441754;78;28438;-82
2021/08/23 13:18:51;;;;;;;3.58;2.75;;;;;;;27.00;78.79;99040.56;4448650;78;28570;-83
2021/08/23 13:25:47;;;;;;;;;;;;;;;;;;;;;
2021/08/23 13:31:53;;;;;;;4.95;2.80;;;;;;;27.49;70.77;99030.73;4107333;84;28506;-82
2021/08/23 13:37:54;;;;;;;4.15;2.67;;;;;;;27.42;70.98;99026.34;4420603;79;28519;-84
2021/08/23 13:43:56;;;;;;;2.80;2.30;;;;;;;28.00;68.00;99024.58;4561352;76;28469;-83
2021/08/23 13:49:57;;;;;;;3.83;2.70;;;;;;;28.20;68.66;99022.84;4546166;77;28515;-81
2021/08/23 13:55:58;;;;;;;4.80;2.70;;;;;;;28.08;67.44;99016.17;4546257;77;28458;-85
2021/08/23 14:01:59;;;;;;;4.25;3.05;;;;;;;27.74;67.73;99023.83;4552843;76;28436;-83
2021/08/23 14:08:01;;;;;;;4.10;3.37;;;;;;;27.98;65.92;99031.27;4566030;76;28486;-83
2021/08/23 14:14:03;;;;;;;4.00;3.37;;;;;;;27.66;68.54;99034.44;4395661;79;28506;-84
2021/08/23 14:20:08;;;;;;;4.40;3.30;;;;;;;27.91;68.86;99032.45;4554309;76;28466;-82
2021/08/23 14:26:09;;;;;;;4.47;2.92;;;;;;;27.62;74.57;99045.38;4529667;76;28466;-84
2021/08/23 14:32:11;;;;;;;3.65;2.12;;;;;;;27.50;74.63;99038.45;4553666;77;28515;-82
2021/08/23 14:38:12;;;;;;;3.37;2.20;;;;;;;26.95;81.79;99026.19;4521569;77;28476;-84
2021/08/23 14:44:13;;;;;;;3.67;2.40;;;;;;;27.02;82.36;99029.76;4569170;76;28531;-89
2021/08/23 14:50:15;;;;;;;3.50;2.40;;;;;;;26.92;85.05;99029.08;4550198;76;28474;-83
2021/08/23 14:56:16;;;;;;;3.45;2.50;;;;;;;26.84;85.60;99027.19;4552560;76;28527;-81
2021/08/23 15:02:17;;;;;;;2.50;2.10;;;;;;;26.82;85.04;99023.97;4572550;76;28433;-82
2021/08/23 15:08:19;;;;;;;2.35;1.75;;;;;;;26.97;86.18;99019.75;4557761;76;28437;-82
2021/08/23 15:14:21;;;;;;;2.42;2.05;;;;;;;27.13;84.99;99021.30;4541760;76;28558;-81
2021/08/23 15:20:23;;;;;;;2.45;1.90;;;;;;;26.78;84.83;99010.05;4562116;76;28475;-80
2021/08/23 15:26:25;;;;;;;2.95;1.90;;;;;;;27.19;83.32;99021.88;4573814;77;28531;-81
2021/08/23 15:32:26;;;;;;;3.55;1.80;;;;;;;26.97;86.42;99013.67;4564526;76;28456;-82
2021/08/23 15:38:28;;;;;;;2.87;1.95;;;;;;;26.85;85.11;99018.55;4562222;77;28463;-82
2021/08/23 15:44:29;;;;;;;4.60;2.20;;;;;;;26.27;88.47;99007.45;4548717;77;28476;-82
2021/08/23 15:50:31;;;;;;;3.05;2.00;;;;;;;25.61;93.95;99015.17;4561855;77;28444;-83
2021/08/23 15:56:33;;;;;;;3.00;2.00;;;;;;;26.18;92.17;98995.11;4556852;76;28457;-82
2021/08/23 16:02:40;;;;;;;2.62;2.02;;;;;;;25.91;95.42;98999.22;4565442;76;28536;-81
2021/08/23 16:08:42;;;;;;;3.92;2.20;;;;;;;26.05;93.75;98993.44;4559198;76;28492;-81
2021/08/23 16:14:43;;;;;;;3.52;2.02;;;;;;;25.60;100.00;98997.05;4552058;76;28465;-82
2021/08/23 16:20:45;;;;;;;3.67;2.25;;;;;;;25.88;97.79;98992.42;4564998;76;28453;-81
2021/08/23 16:26:47;;;;;;;2.67;2.22;;;;;;;25.71;100.00;98989.22;4559616;76;28484;-80
2021/08/23 16:32:50;;;;;;;3.10;2.22;;;;;;;25.70;100.00;98986.23;4551173;76;28455;-86
2021/08/23 16:38:51;;;;;;;3.25;2.70;;;;;;;25.60;100.00;98988.23;4558945;76;29032;-81
2021/08/23 16:44:53;;;;;;;4.40;2.50;;;;;;;25.31;100.00;98987.06;4558488;76;28469;-80
2021/08/23 16:50:54;;;;;;;4.65;2.33;;;;;;;25.67;100.00;98995.14;4547065;76;28561;-81
2021/08/23 16:56:56;;;;;;;4.60;2.87;;;;;;;25.28;100.00;98991.87;4552700;76;28518;-81
2021/08/23 17:02:57;;;;;;;3.85;2.87;;;;;;;25.24;100.00;99003.28;4554090;76;28453;-82
2021/08/23 17:08:59;;;;;;;4.87;2.70;;;;;;;25.00;100.00;98992.30;4555280;76;28492;-82
2021/08/23 17:15:00;;;;;;;3.58;2.80;;;;;;;25.13;100.00;98994.60;4546082;76;28458;-81
2021/08/23 17:21:02;;;;;;;4.70;2.98;;;;;;;25.04;100.00;98998.77;4555585;76;28544;-81
2021/08/23 17:27:05;;;;;;;3.70;2.95;;;;;;;24.88;100.00;99014.97;4565040;77;28534;-80
2021/08/23 17:33:06;;;;;;;5.20;3.10;;;;;;;25.00;100.00;99026.67;4556804;76;28616;-81
2021/08/23 17:39:08;;;;;;;5.83;3.40;;;;;;;25.01;100.00;99026.91;4547288;76;28522;-82
2021/08/23 17:45:10;;;;;;;5.40;3.25;;;;;;;24.92;100.00;99027.50;4529310;77;28533;-80
2021/08/23 17:51:12;;;;;;;6.97;3.62;;;;;;;24.44;100.00;99027.41;4543139;76;28516;-78
2021/08/23 17:57:13;;;;;;;7.53;3.65;;;;;;;24.79;100.00;99021.09;4548416;76;28526;-78
2021/08/23 18:03:14;;;;;;;4.45;3.10;;;;;;;24.72;100.00;99011.13;4545731;76;28455;-78
2021/08/23 18:09:16;;;;;;;6.92;3.40;;;;;;;24.44;100.00;99016.97;4549483;76;28523;-79
2021/08/23 18:15:17;;;;;;;6.80;3.50;;;;;;;24.45;100.00;99012.54;4535196;76;28549;-77
2021/08/23 18:21:20;;;;;;;7.55;3.45;;;;;;;24.66;100.00;99014.61;4546510;77;28448;-78
2021/08/23 18:27:21;;;;;;;5.17;3.00;;;;;;;24.34;100.00;99013.42;4555244;76;29039;-79
2021/08/23 18:33:22;;;;;;;4.47;3.20;;;;;;;24.27;100.00;99011.75;4561715;77;28447;-78
2021/08/23 18:39:24;;;;;;;6.92;2.80;;;;;;;24.28;100.00;99016.11;4554828;77;28488;-77
2021/08/23 18:45:25;;;;;;;5.65;2.52;;;;;;;24.58;100.00;99013.50;4559675;77;28558;-77
2021/08/23 18:51:26;;;;;;;6.30;3.25;;;;;;;24.50;100.00;99010.98;4557098;77;28480;-77
2021/08/23 18:57:27;;;;;;;5.17;2.77;;;;;;;24.41;100.00;99019.80;4563481;76;28468;-78
2021/08/23 19:03:29;;;;;;;6.72;2.92;;;;;;;24.23;100.00;99022.58;4564082;76;28463;-78
2021/08/23 19:09:31;;;;;;;4.35;2.55;;;;;;;24.19;100.00;99022.95;4557362;76;28606;-77
2021/08/23 19:15:33;;;;;;;7.22;3.12;;;;;;;24.18;100.00;99028.21;4563441;76;28501;-77
2021/08/23 19:21:36;;;;;;;5.45;2.92;;;;;;;23.96;100.00;99025.03;4550993;77;28554;-78
2021/08/23 19:27:39;;;;;;;5.90;3.00;;;;;;;23.96;100.00;99031.90;4555859;77;28483;-75
2021/08/23 19:33:41;;;;;;;7.30;3.27;;;;;;;24.09;100.00;99025.47;4559250;76;28438;-76
2021/08/23 19:39:43;;;;;;;6.40;3.08;;;;;;;23.87;100.00;99031.87;4551066;77;28427;-76
2021/08/23 19:45:45;;;;;;;4.67;2.47;;;;;;;23.97;100.00;99028.58;4545736;76;28542;-77
2021/08/23 19:51:47;;;;;;;7.45;3.10;;;;;;;23.94;100.00;99029.47;4562585;76;28503;-74
2021/08/23 19:57:52;;;;;;;5.00;2.85;;;;;;;23.88;100.00;99027.98;4559594;76;28480;-77
2021/08/23 20:03:52;;;;;;;6.05;3.58;;;;;;;24.11;100.00;99016.09;4558931;76;28517;-77
2021/08/23 20:09:54;;;;;;;5.95;2.85;;;;;;;23.99;100.00;99018.89;4546369;76;28498;-79
2021/08/23 20:15:55;;;;;;;5.10;2.80;;;;;;;24.03;100.00;99017.69;4554174;77;28569;-79
2021/08/23 20:21:56;;;;;;;6.72;2.80;;;;;;;24.03;100.00;99019.06;4569498;76;28587;-79
2021/08/23 20:27:57;;;;;;;5.83;3.10;;;;;;;23.94;100.00;99005.30;4566805;78;28544;-79
2021/08/23 20:34:11;;;;;;;6.33;3.00;;;;;;;23.78;100.00;99006.34;4576908;77;28547;-79
2021/08/23 20:40:10;;;;;;;5.78;2.90;;;;;;;23.43;100.00;99009.02;4577260;77;28445;-82
2021/08/23 20:46:13;;;;;;;4.10;2.80;;;;;;;23.64;100.00;99021.01;4590885;77;28449;-82
2021/08/23 20:52:18;;;;;;;3.20;2.45;;;;;;;23.56;100.00;99012.77;4562611;77;28482;-81
2021/08/23 20:58:20;;;;;;;6.65;3.15;;;;;;;23.33;100.00;99006.80;4565846;77;28473;-80
2021/08/23 21:04:21;;;;;;;6.47;3.35;;;;;;;23.75;100.00;98993.27;4583977;77;28476;-86
2021/08/23 21:10:23;;;;;;;6.47;2.80;;;;;;;23.39;100.00;98997.31;4552426;77;28473;-87
2021/08/23 21:16:24;;;;;;;3.95;2.83;;;;;;;23.09;100.00;98995.64;4558894;77;28500;-86
2021/08/23 21:22:25;;;;;;;6.17;2.90;;;;;;;23.24;100.00;98991.66;4563336;77;28850;-86
2021/08/23 21:28:26;;;;;;;7.15;3.62;;;;;;;23.04;100.00;98991.65;4578321;76;28441;-86
2021/08/23 21:34:28;;;;;;;7.03;3.50;;;;;;;23.08;100.00;98989.91;4592610;77;28446;-86
2021/08/23 21:40:30;;;;;;;7.70;3.55;;;;;;;22.96;100.00;98982.81;4586192;76;28425;-86
2021/08/23 21:46:32;;;;;;;7.35;3.65;;;;;;;22.52;100.00;98983.39;4419630;79;28513;-85
2021/08/23 21:52:33;;;;;;;5.50;3.17;;;;;;;22.62;100.00;98986.45;4495924;78;28498;-85
2021/08/23 21:58:34;;;;;;;4.45;2.83;;;;;;;22.63;100.00;98986.70;4475333;79;28458;-84
2021/08/23 22:04:36;;;;;;;6.35;3.22;;;;;;;22.48;100.00;98976.08;4472400;79;28509;-85
2021/08/23 22:10:39;;;;;;;8.23;3.60;;;;;;;22.54;100.00;98983.09;4472702;79;28546;-86
2021/08/23 22:16:40;;;;;;;7.00;3.47;;;;;;;22.53;100.00;98974.05;4472553;79;28478;-85
2021/08/23 22:22:41;;;;;;;6.83;3.35;;;;;;;22.35;100.00;98977.78;4472210;79;28468;-85
2021/08/23 22:28:48;;;;;;;7.72;3.30;;;;;;;22.35;100.00;98982.69;4466421;79;28484;-85
2021/08/23 22:34:50;;;;;;;8.23;3.65;;;;;;;22.18;100.00;98977.89;4467751;79;28476;-85
2021/08/23 22:40:51;;;;;;;9.18;3.70;;;;;;;22.04;100.00;98972.47;4481386;79;28436;-85
2021/08/23 22:46:53;;;;;;;5.90;3.55;;;;;;;22.23;100.00;98980.52;4488065;79;28468;-85
2021/08/23 22:52:54;;;;;;;8.08;3.83;;;;;;;22.24;100.00;98975.84;4504760;77;28470;-85
2021/08/23 22:58:55;;;;;;;8.45;4.78;;;;;;;22.16;100.00;98977.41;4589339;77;28496;-85
2021/08/23 23:04:57;;;;;;;8.48;4.92;;;;;;;22.09;100.00;98980.58;4585274;77;28441;-85
2021/08/23 23:10:58;;;;;;;10.70;4.97;;;;;;;22.36;100.00;98989.78;4591943;77;28479;-85
2021/08/23 23:16:59;;;;;;;12.18;4.62;;;;;;;22.50;100.00;98981.53;4591678;76;28431;-86
2021/08/23 23:23:03;;;;;;;8.60;4.85;;;;;;;22.17;100.00;98979.56;4591168;77;28486;-85
2021/08/23 23:29:05;;;;;;;7.78;4.83;;;;;;;22.26;100.00;98986.74;4598453;77;28523;-85
2021/08/23 23:35:09;;;;;;;8.35;4.22;;;;;;;21.82;100.00;98985.57;4599501;77;28546;-85
2021/08/23 23:41:10;;;;;;;9.58;4.53;;;;;;;22.03;100.00;98988.64;4599575;77;28492;-85
2021/08/23 23:47:11;;;;;;;10.40;4.42;;;;;;;21.98;100.00;98993.67;4578154;76;28540;-85
2021/08/23 23:53:13;;;;;;;8.50;3.95;;;;;;;22.11;100.00;98989.83;4575327;77;28461;-86
2021/08/23 23:59:14;;;;;;;7.78;4.87;;;;;;;22.31;100.00;98980.88;4541947;78;28527;-86
